createdAt,value
2023-03-29T00:00:46.449Z,20.32
2023-03-29T00:03:13.127Z,20.53
2023-03-29T00:05:39.783Z,20.23
2023-03-29T00:08:06.319Z,19.95
2023-03-29T00:10:32.880Z,19.51
2023-03-29T00:12:59.453Z,19.99
2023-03-29T00:15:25.980Z,19.77
2023-03-29T00:17:52.565Z,19.33
2023-03-29T00:20:19.133Z,19.00
2023-03-29T00:22:45.721Z,19.43
2023-03-29T00:25:12.298Z,18.89
2023-03-29T00:27:38.867Z,18.84
2023-03-29T00:30:05.429Z,18.99
2023-03-29T00:32:31.979Z,19.32
2023-03-29T00:34:58.551Z,18.93
2023-03-29T00:37:25.084Z,19.06
2023-03-29T00:39:51.644Z,19.17
2023-03-29T00:42:18.203Z,18.37
2023-03-29T00:44:44.760Z,18.44
2023-03-29T00:47:11.296Z,18.36
2023-03-29T00:49:37.862Z,17.89
2023-03-29T00:52:04.401Z,17.52
2023-03-29T00:54:30.943Z,17.90
2023-03-29T00:56:57.527Z,17.80
2023-03-29T00:59:24.117Z,17.95
2023-03-29T05:06:32.937Z,9.68
2023-03-29T05:08:59.490Z,8.78
2023-03-29T05:11:26.032Z,8.84
2023-03-29T05:13:52.560Z,8.72
2023-03-29T05:16:19.161Z,8.80
2023-03-29T05:18:45.735Z,8.76
2023-03-29T05:21:12.283Z,8.35
2023-03-29T05:23:38.808Z,8.63
2023-03-29T05:26:05.406Z,8.42
2023-03-29T05:28:31.979Z,8.41
2023-03-29T05:30:58.562Z,8.30
2023-03-29T05:33:25.110Z,8.45
2023-03-29T05:35:51.683Z,8.17
2023-03-29T05:38:18.531Z,8.22
2023-03-29T05:40:45.128Z,8.12
2023-03-29T05:43:11.679Z,8.33
2023-03-29T05:45:38.251Z,8.52
2023-03-29T05:48:04.878Z,8.18
2023-03-29T05:50:31.467Z,7.68
2023-03-29T05:52:57.999Z,7.89
2023-03-29T05:55:24.560Z,7.79
2023-03-29T05:57:51.108Z,7.90
2023-03-29T06:00:17.675Z,7.84
2023-03-29T06:02:44.288Z,7.40
2023-03-29T06:05:10.933Z,7.68
2023-03-29T06:07:37.475Z,7.30
2023-03-29T06:10:04.008Z,7.17
2023-03-29T06:12:30.562Z,7.24
2023-03-29T06:14:57.108Z,7.16
2023-03-29T06:17:23.646Z,6.82
2023-03-29T06:19:50.208Z,7.17
2023-03-29T06:22:16.760Z,6.81
2023-03-29T06:24:43.306Z,7.16
2023-03-29T06:27:09.842Z,6.98
2023-03-29T06:29:36.379Z,6.57
2023-03-29T06:32:02.935Z,6.76
2023-03-29T06:34:29.479Z,6.64
2023-03-29T06:36:56.035Z,7.15
2023-03-29T06:39:22.578Z,6.59
2023-03-29T06:41:49.107Z,6.66
2023-03-29T06:44:15.643Z,6.73
2023-03-29T06:46:42.244Z,6.71
2023-03-29T06:49:08.818Z,6.19
2023-03-29T06:51:35.358Z,6.50
2023-03-29T06:54:01.924Z,6.08
2023-03-29T06:56:28.559Z,6.15
2023-03-29T06:58:55.129Z,6.03
2023-03-29T07:01:21.845Z,5.90
2023-03-29T07:03:48.556Z,5.64
2023-03-29T07:06:15.113Z,5.90
2023-03-29T07:08:41.674Z,6.11
2023-03-29T07:11:08.245Z,5.89
2023-03-29T07:13:34.919Z,5.96
2023-03-29T07:16:01.542Z,6.14
2023-03-29T07:18:28.270Z,6.03
2023-03-29T07:20:54.819Z,5.83
2023-03-29T07:23:21.343Z,5.63
2023-03-29T07:25:47.897Z,6.09
2023-03-29T07:28:14.446Z,6.04
2023-03-29T07:30:41.028Z,5.65
2023-03-29T07:33:07.641Z,6.13
2023-03-29T07:35:34.346Z,5.89
2023-03-29T07:38:00.919Z,6.17
2023-03-29T07:40:27.482Z,6.00
2023-03-29T07:42:54.319Z,5.93
2023-03-29T07:45:25.982Z,6.05
2023-03-29T07:47:52.878Z,6.33
2023-03-29T07:50:19.479Z,6.28
2023-03-29T07:52:46.075Z,6.24
2023-03-29T07:55:12.605Z,6.37
2023-03-29T07:57:39.153Z,6.39
2023-03-29T08:00:05.709Z,6.79
2023-03-29T08:02:32.312Z,6.64
2023-03-29T08:04:58.916Z,6.90
2023-03-29T08:07:25.472Z,7.06
2023-03-29T08:09:52.019Z,7.23
2023-03-29T08:12:18.550Z,7.76
2023-03-29T08:14:45.094Z,7.69
2023-03-29T08:17:11.683Z,8.02
2023-03-29T08:19:38.305Z,8.53
2023-03-29T08:22:04.876Z,8.62
2023-03-29T08:24:31.436Z,9.07
2023-03-29T08:26:57.992Z,9.74
2023-03-29T08:29:24.529Z,8.06
2023-03-29T08:31:51.095Z,8.94
2023-03-29T08:34:17.641Z,8.67
2023-03-29T08:36:44.177Z,10.27
2023-03-29T08:39:10.737Z,10.71
2023-03-29T08:41:37.289Z,10.59
2023-03-29T08:44:03.822Z,10.53
2023-03-29T08:46:35.140Z,10.13
2023-03-29T08:49:02.316Z,11.00
2023-03-29T08:51:28.863Z,11.59
2023-03-29T08:53:55.398Z,13.63
2023-03-29T08:56:21.937Z,14.16
2023-03-29T08:58:48.477Z,14.09
2023-03-29T09:01:15.123Z,14.28
2023-03-29T09:03:41.861Z,13.63
2023-03-29T09:06:08.431Z,13.06
2023-03-29T09:08:34.988Z,12.63
2023-03-29T09:11:01.704Z,12.60
2023-03-29T09:13:28.480Z,12.59
2023-03-29T09:15:55.231Z,12.43
2023-03-29T09:18:21.808Z,12.81
2023-03-29T09:20:48.356Z,12.66
2023-03-29T09:23:14.904Z,12.52
2023-03-29T09:25:50.968Z,12.64
2023-03-29T09:28:19.556Z,12.54
2023-03-29T09:30:46.124Z,11.97
2023-03-29T09:33:12.746Z,11.78
2023-03-29T09:35:39.368Z,12.39
2023-03-29T09:38:05.939Z,11.01
2023-03-29T09:40:32.495Z,11.32
2023-03-29T09:42:59.060Z,10.94
2023-03-29T09:45:25.637Z,10.05
2023-03-29T09:47:52.278Z,10.34
2023-03-29T09:50:30.252Z,10.06
2023-03-29T09:52:57.845Z,10.45
2023-03-29T09:55:24.421Z,11.17
2023-03-29T09:57:51.165Z,11.67
2023-03-29T10:00:17.742Z,12.06
2023-03-29T10:02:44.349Z,11.19
2023-03-29T10:05:10.889Z,10.81
2023-03-29T10:07:37.433Z,11.14
2023-03-29T10:10:03.988Z,11.42
2023-03-29T10:12:30.534Z,11.52
2023-03-29T10:14:57.083Z,11.75
2023-03-29T10:17:23.679Z,12.35
2023-03-29T10:19:50.310Z,11.80
2023-03-29T10:22:16.875Z,11.94
2023-03-29T10:24:43.433Z,12.24
2023-03-29T10:27:09.995Z,12.32
2023-03-29T10:29:36.528Z,12.58
2023-03-29T10:32:03.130Z,12.90
2023-03-29T10:34:29.720Z,13.61
2023-03-29T10:36:56.262Z,15.20
2023-03-29T10:39:22.856Z,16.79
2023-03-29T10:41:49.392Z,17.79
2023-03-29T10:44:15.943Z,19.88
2023-03-29T10:46:42.538Z,20.88
2023-03-29T10:49:09.215Z,23.42
2023-03-29T10:51:35.772Z,21.75
2023-03-29T10:54:02.331Z,24.22
2023-03-29T10:56:28.883Z,27.70
2023-03-29T10:58:55.440Z,28.78
2023-03-29T11:01:22.040Z,29.95
2023-03-29T11:03:48.689Z,29.80
2023-03-29T11:06:15.291Z,31.67
2023-03-29T11:08:41.853Z,30.16
2023-03-29T11:11:08.406Z,30.46
2023-03-29T11:13:34.949Z,27.06
2023-03-29T11:16:01.581Z,23.91
2023-03-29T11:18:28.195Z,24.52
2023-03-29T11:20:54.741Z,25.75
2023-03-29T11:23:21.287Z,26.15
2023-03-29T11:25:47.872Z,26.16
2023-03-29T11:28:14.411Z,27.14
2023-03-29T11:30:40.977Z,28.05
2023-03-29T11:33:07.588Z,30.34
2023-03-29T11:35:34.154Z,30.40
2023-03-29T11:38:00.717Z,30.42
2023-03-29T11:40:27.283Z,32.16
2023-03-29T11:42:53.848Z,41.60
2023-03-29T11:45:20.400Z,42.00
2023-03-29T11:47:47.096Z,47.24
2023-03-29T11:50:13.674Z,46.09
2023-03-29T11:52:40.282Z,48.38
2023-03-29T11:55:06.853Z,52.02
2023-03-29T11:57:33.399Z,56.09
2023-03-29T11:59:59.943Z,53.99
2023-03-29T12:02:26.600Z,51.14
2023-03-29T12:04:53.227Z,55.19
2023-03-29T12:07:19.776Z,55.22
2023-03-29T12:09:46.333Z,55.41
2023-03-29T12:12:12.907Z,56.44
2023-03-29T12:14:39.444Z,54.85
2023-03-29T12:17:06.004Z,56.61
2023-03-29T12:19:32.648Z,51.20
2023-03-29T12:21:59.201Z,48.15
2023-03-29T12:24:25.772Z,46.26
2023-03-29T12:26:52.323Z,46.30
2023-03-29T12:29:18.871Z,45.71
2023-03-29T12:31:45.436Z,46.94
2023-03-29T12:34:12.033Z,52.95
2023-03-29T12:36:38.579Z,53.10
2023-03-29T12:39:05.157Z,49.14
2023-03-29T12:41:31.693Z,48.70
2023-03-29T12:43:58.242Z,46.72
2023-03-29T12:46:24.812Z,48.74
2023-03-29T12:48:51.377Z,47.93
2023-03-29T12:51:17.943Z,45.43
2023-03-29T12:53:44.563Z,47.57
2023-03-29T12:56:11.119Z,45.39
2023-03-29T12:58:37.673Z,41.01
2023-03-29T13:01:05.811Z,38.77
2023-03-29T13:03:32.763Z,40.54
2023-03-29T13:05:59.307Z,39.12
2023-03-29T13:08:25.876Z,37.50
2023-03-29T13:10:52.443Z,36.39
2023-03-29T13:13:19.000Z,36.59
2023-03-29T13:15:45.589Z,36.04
2023-03-29T13:18:12.619Z,37.64
2023-03-29T13:20:39.325Z,32.02
2023-03-29T13:23:05.884Z,30.56
2023-03-29T13:25:32.474Z,29.92
2023-03-29T13:27:59.059Z,32.65
2023-03-29T13:30:25.606Z,31.61
2023-03-29T13:32:52.190Z,31.34
2023-03-29T13:35:18.740Z,31.21
2023-03-29T13:37:45.287Z,31.10
2023-03-29T13:40:11.868Z,31.32
2023-03-29T13:42:38.420Z,31.27
2023-03-29T13:45:04.975Z,29.77
2023-03-29T13:47:31.592Z,27.48
2023-03-29T13:49:58.148Z,29.86
2023-03-29T13:52:24.730Z,27.96
2023-03-29T13:54:51.333Z,27.64
2023-03-29T13:57:17.978Z,26.82
2023-03-29T13:59:44.573Z,28.93
2023-03-29T14:02:11.175Z,29.67
2023-03-29T14:04:37.810Z,27.57
2023-03-29T14:07:04.405Z,25.87
2023-03-29T14:09:30.960Z,24.41
2023-03-29T14:11:57.535Z,21.50
2023-03-29T14:14:24.103Z,21.00
2023-03-29T14:16:50.771Z,21.60
2023-03-29T14:19:17.396Z,23.03
2023-03-29T14:21:43.972Z,26.42
2023-03-29T14:24:10.600Z,24.38
2023-03-29T14:26:37.156Z,24.71
2023-03-29T14:29:03.725Z,25.52
2023-03-29T14:31:30.312Z,25.07
2023-03-29T14:33:56.894Z,24.01
2023-03-29T14:36:23.508Z,24.07
2023-03-29T14:38:50.126Z,24.18
2023-03-29T14:41:16.679Z,23.94
2023-03-29T14:43:43.237Z,23.91
2023-03-29T14:46:09.846Z,24.52
2023-03-29T14:48:36.387Z,23.76
2023-03-29T14:51:02.992Z,23.98
2023-03-29T14:53:29.561Z,24.27
2023-03-29T14:55:56.117Z,23.57
2023-03-29T14:58:22.698Z,24.11
2023-03-29T15:00:49.298Z,23.42
2023-03-29T15:03:15.988Z,22.70
2023-03-29T15:05:42.625Z,21.38
2023-03-29T15:08:09.264Z,19.07
2023-03-29T15:10:35.797Z,21.06
2023-03-29T15:13:02.340Z,21.88
2023-03-29T15:15:28.925Z,21.04
2023-03-29T15:17:55.502Z,19.44
2023-03-29T15:20:22.066Z,21.73
2023-03-29T15:22:48.614Z,21.31
2023-03-29T15:25:15.190Z,20.29
2023-03-29T15:27:41.757Z,19.97
2023-03-29T15:30:08.329Z,21.43
2023-03-29T15:32:34.916Z,20.86
2023-03-29T15:35:01.512Z,19.81
2023-03-29T15:37:28.059Z,19.97
2023-03-29T15:39:54.597Z,20.34
2023-03-29T15:42:21.186Z,19.62
2023-03-29T15:44:47.766Z,20.72
2023-03-29T15:47:14.312Z,21.25
2023-03-29T15:49:40.868Z,20.91
2023-03-29T15:52:07.432Z,19.74
2023-03-29T15:54:33.995Z,19.15
2023-03-29T15:57:00.626Z,20.13
2023-03-29T15:59:27.215Z,19.34
2023-03-29T16:01:53.811Z,18.93
2023-03-29T16:04:20.356Z,18.73
2023-03-29T16:06:46.971Z,19.24
2023-03-29T16:09:13.541Z,19.44
2023-03-29T16:11:40.091Z,19.31
2023-03-29T16:14:06.699Z,19.23
2023-03-29T16:16:33.300Z,18.84
2023-03-29T16:18:59.864Z,19.18
2023-03-29T16:21:26.400Z,18.76
2023-03-29T16:23:52.939Z,19.44
2023-03-29T16:26:19.503Z,19.11
2023-03-29T16:28:46.083Z,19.75
2023-03-29T16:31:12.732Z,20.08
2023-03-29T16:33:39.382Z,19.11
2023-03-29T16:36:06.282Z,20.07
2023-03-29T16:38:33.045Z,19.82
2023-03-29T16:40:59.626Z,19.07
2023-03-29T16:43:26.168Z,18.98
2023-03-29T16:45:52.779Z,20.05
2023-03-29T16:48:19.381Z,19.39
2023-03-29T16:50:45.981Z,19.36
2023-03-29T16:53:12.536Z,19.65
2023-03-29T16:55:39.092Z,19.79
2023-03-29T16:58:05.650Z,19.02
2023-03-29T17:00:32.236Z,18.94
2023-03-29T17:02:58.856Z,19.28
2023-03-29T17:05:25.433Z,18.53
2023-03-29T17:07:51.983Z,18.69
2023-03-29T17:10:18.544Z,19.38
2023-03-29T17:12:45.071Z,19.98
2023-03-29T17:15:11.611Z,20.10
2023-03-29T17:17:38.180Z,19.85
2023-03-29T17:20:04.747Z,18.91
2023-03-29T17:22:31.312Z,20.01
2023-03-29T17:24:57.871Z,19.79
2023-03-29T17:27:24.429Z,19.29
2023-03-29T17:29:50.996Z,19.16
2023-03-29T17:32:17.565Z,19.42
2023-03-29T17:34:44.124Z,19.39
2023-03-29T17:37:10.673Z,19.81
2023-03-29T17:39:37.324Z,19.65
2023-03-29T17:42:04.068Z,20.02
2023-03-29T17:44:30.608Z,20.14
2023-03-29T17:46:57.254Z,20.03
2023-03-29T17:49:23.810Z,20.23
2023-03-29T17:51:50.376Z,20.74
2023-03-29T17:54:16.957Z,20.18
2023-03-29T17:56:43.537Z,20.78
2023-03-29T17:59:10.101Z,21.21
2023-03-29T18:01:38.993Z,21.33
2023-03-29T18:04:05.862Z,21.69
2023-03-29T18:06:32.437Z,21.86
2023-03-29T18:08:59.019Z,21.96
2023-03-29T18:11:25.603Z,22.02
2023-03-29T18:13:52.179Z,22.86
2023-03-29T18:16:18.787Z,22.55
2023-03-29T18:18:46.278Z,22.42
2023-03-29T18:21:12.900Z,22.72
2023-03-29T18:23:39.480Z,22.69
2023-03-29T18:26:06.186Z,22.56
2023-03-29T18:28:32.954Z,22.53
2023-03-29T18:30:59.521Z,22.93
2023-03-29T18:33:26.087Z,22.65
2023-03-29T18:35:52.780Z,23.59
2023-03-29T18:38:19.385Z,23.32
2023-03-29T18:40:45.943Z,23.15
2023-03-29T18:43:12.496Z,23.51
2023-03-29T18:45:39.102Z,23.75
2023-03-29T18:48:05.735Z,24.26
2023-03-29T18:50:32.316Z,23.60
2023-03-29T18:52:58.872Z,23.71
2023-03-29T18:55:25.432Z,24.11
2023-03-29T18:57:51.968Z,24.11
2023-03-29T19:00:18.507Z,23.89
2023-03-29T19:02:45.131Z,24.37
2023-03-29T19:05:11.755Z,24.48
2023-03-29T19:07:38.311Z,24.72
2023-03-29T19:10:04.875Z,24.40
2023-03-29T19:12:31.418Z,24.19
2023-03-29T19:14:57.968Z,23.56
2023-03-29T19:17:24.541Z,25.11
2023-03-29T19:19:51.134Z,24.33
2023-03-29T19:22:17.695Z,24.80
2023-03-29T19:24:44.255Z,24.62
2023-03-29T19:27:12.555Z,23.87
2023-03-29T19:29:39.293Z,24.71
2023-03-29T19:32:05.836Z,24.81
2023-03-29T19:34:32.385Z,23.73
2023-03-29T19:36:58.964Z,24.03
2023-03-29T19:39:25.527Z,24.34
2023-03-29T19:41:52.119Z,24.73
2023-03-29T19:44:18.666Z,24.13
2023-03-29T19:46:45.244Z,24.61
2023-03-29T19:49:11.807Z,23.85
2023-03-29T19:51:38.364Z,24.11
2023-03-29T19:54:04.933Z,23.23
2023-03-29T19:56:31.478Z,23.36
2023-03-29T19:58:58.033Z,23.26
2023-03-29T20:01:24.625Z,23.06
2023-03-29T20:03:51.266Z,22.94
2023-03-29T20:06:18.055Z,23.07
2023-03-29T20:08:44.597Z,23.43
2023-03-29T20:11:11.177Z,23.27
2023-03-29T20:13:39.027Z,22.54
2023-03-29T20:16:05.785Z,22.61
2023-03-29T20:18:32.401Z,22.84
2023-03-29T20:20:58.959Z,23.08
2023-03-29T20:23:25.522Z,22.68
2023-03-29T20:25:52.088Z,22.78
2023-03-29T20:28:18.626Z,21.93
2023-03-29T20:30:45.178Z,22.23
2023-03-29T20:33:11.719Z,22.13
2023-03-29T20:35:38.375Z,21.84
2023-03-29T20:38:04.983Z,21.47
2023-03-29T20:40:31.545Z,21.75
2023-03-29T20:42:58.113Z,21.69
2023-03-29T20:45:24.678Z,21.23
2023-03-29T20:47:51.295Z,21.64
2023-03-29T20:50:17.924Z,22.01
2023-03-29T20:52:44.477Z,21.41
2023-03-29T20:55:11.046Z,21.20
2023-03-29T20:57:37.602Z,20.80
2023-03-29T21:00:04.222Z,20.70
2023-03-29T21:02:30.794Z,20.23
2023-03-29T21:04:57.380Z,20.95
2023-03-29T21:07:23.924Z,20.54
2023-03-29T21:09:50.487Z,20.47
2023-03-29T21:12:17.085Z,20.03
2023-03-29T21:14:43.662Z,19.81
2023-03-29T21:17:10.278Z,19.55
2023-03-29T21:19:36.848Z,19.71
2023-03-29T21:22:03.386Z,19.27
2023-03-29T21:24:29.956Z,19.55
2023-03-29T21:26:56.528Z,19.43
2023-03-29T21:29:23.131Z,19.54
2023-03-29T21:31:49.774Z,18.88
2023-03-29T21:34:16.341Z,19.30
2023-03-29T21:36:42.893Z,18.97
2023-03-29T21:39:09.441Z,19.07
2023-03-29T21:41:35.998Z,18.92
2023-03-29T21:44:02.553Z,18.72
2023-03-29T21:46:29.160Z,18.82
2023-03-29T21:48:55.762Z,18.00
2023-03-29T21:51:22.345Z,17.71
2023-03-29T21:53:48.927Z,18.00
2023-03-29T21:56:15.468Z,17.38
2023-03-29T21:58:42.054Z,17.90
2023-03-29T22:01:08.627Z,17.24
2023-03-29T22:03:35.198Z,17.08
2023-03-29T22:06:01.746Z,16.16
2023-03-29T22:08:28.283Z,16.28
2023-03-29T22:10:54.844Z,16.93
2023-03-29T22:13:21.399Z,16.39
2023-03-29T22:15:47.949Z,16.59
2023-03-29T22:18:14.497Z,16.19
2023-03-29T22:20:41.079Z,16.66
2023-03-29T22:23:07.632Z,15.99
2023-03-29T22:25:34.445Z,15.21
2023-03-29T22:28:00.989Z,15.40
2023-03-29T22:30:27.542Z,15.64
2023-03-29T22:32:54.159Z,14.99
2023-03-29T22:35:20.751Z,15.31
2023-03-29T22:37:47.307Z,15.23
2023-03-29T22:40:13.881Z,15.05
2023-03-29T22:42:40.458Z,14.27
2023-03-29T22:45:07.003Z,15.07
2023-03-29T22:47:33.573Z,14.10
2023-03-29T22:50:00.207Z,14.41
2023-03-29T22:52:26.771Z,14.29
2023-03-29T22:54:53.310Z,13.88
2023-03-29T22:57:19.924Z,13.61
2023-03-29T22:59:46.552Z,13.87
2023-03-29T23:02:13.104Z,14.13
2023-03-29T23:04:39.792Z,13.79
2023-03-29T23:07:06.389Z,13.71
2023-03-29T23:09:32.968Z,13.36
2023-03-29T23:11:59.550Z,13.59
2023-03-29T23:14:26.129Z,13.42
2023-03-29T23:16:52.700Z,12.91
2023-03-29T23:19:19.260Z,13.32
2023-03-29T23:21:45.792Z,13.05
2023-03-29T23:24:12.355Z,12.99
2023-03-29T23:26:38.892Z,12.82
2023-03-29T23:29:05.427Z,12.79
2023-03-29T23:31:31.990Z,12.59
2023-03-29T23:33:58.555Z,12.93
2023-03-29T23:36:25.096Z,12.36
2023-03-29T23:38:51.650Z,12.27
2023-03-29T23:41:18.190Z,12.41
2023-03-29T23:43:44.797Z,12.01
2023-03-29T23:46:11.401Z,12.71
2023-03-29T23:48:38.028Z,12.07
2023-03-29T23:51:04.731Z,11.74
2023-03-29T23:53:31.413Z,12.16
2023-03-29T23:55:57.973Z,11.63
2023-03-29T23:58:24.517Z,11.94
